createdAt,value
2018-03-14T00:00:18.617Z,7.36
2018-03-14T00:01:18.042Z,7.38
2018-03-14T00:02:18.319Z,7.43
2018-03-14T00:03:18.341Z,7.4
2018-03-14T00:04:18.296Z,7.39
2018-03-14T00:05:18.734Z,7.42
2018-03-14T00:06:18.300Z,7.42
2018-03-14T00:07:19.428Z,7.43
2018-03-14T00:08:18.277Z,7.35
2018-03-14T00:09:17.997Z,7.35
2018-03-14T00:10:18.712Z,7.38
2018-03-14T00:11:18.253Z,7.36
2018-03-14T00:12:17.701Z,7.28
2018-03-14T00:13:17.961Z,7.31
2018-03-14T00:14:18.242Z,7.35
2018-03-14T00:15:19.274Z,7.36
2018-03-14T00:16:17.943Z,7.33
2018-03-14T00:17:18.212Z,7.42
2018-03-14T00:18:18.265Z,7.42
2018-03-14T00:19:17.994Z,7.39
2018-03-14T00:20:18.500Z,7.43
2018-03-14T00:21:18.266Z,7.43
2018-03-14T00:22:17.912Z,7.38
2018-03-14T00:23:17.635Z,7.38
2018-03-14T00:24:17.912Z,7.47
2018-03-14T00:25:18.262Z,7.43
2018-03-14T00:26:18.202Z,7.47
2018-03-14T00:27:18.150Z,7.56
2018-03-14T00:28:17.892Z,7.47
2018-03-14T00:29:17.897Z,7.56
2018-03-14T00:30:18.489Z,7.54
2018-03-14T00:31:17.875Z,7.43
2018-03-14T00:32:18.156Z,7.5
2018-03-14T00:33:17.572Z,7.51
2018-03-14T00:34:17.856Z,7.53
2018-03-14T00:35:18.399Z,7.57
2018-03-14T00:36:17.894Z,7.5
2018-03-14T00:37:17.823Z,7.47
2018-03-14T00:38:18.207Z,7.51
2018-03-14T00:39:17.820Z,7.43
2018-03-14T00:40:18.586Z,7.47
2018-03-14T00:41:18.065Z,7.48
2018-03-14T00:42:18.047Z,7.53
2018-03-14T00:43:18.081Z,7.53
2018-03-14T00:44:18.035Z,7.43
2018-03-14T00:45:18.374Z,7.43
2018-03-14T00:46:18.482Z,7.45
2018-03-14T00:47:18.019Z,7.36
2018-03-14T00:48:17.766Z,7.35
2018-03-14T00:49:17.752Z,7.4
2018-03-14T00:50:18.773Z,7.4
2018-03-14T00:51:18.052Z,7.39
2018-03-14T00:52:18.031Z,7.42
2018-03-14T00:53:18.002Z,7.35
2018-03-14T00:54:18.275Z,7.39
2018-03-14T00:55:18.733Z,7.35
2018-03-14T00:56:17.711Z,7.35
2018-03-14T00:57:17.696Z,7.42
2018-03-14T00:58:17.972Z,7.32
2018-03-14T00:59:17.423Z,7.35
2018-03-14T01:00:17.847Z,7.33
2018-03-14T01:01:17.674Z,7.25
2018-03-14T01:02:18.472Z,7.32
2018-03-14T01:03:17.959Z,7.38
2018-03-14T01:04:17.918Z,7.35
2018-03-14T01:05:18.195Z,7.32
2018-03-14T01:06:18.916Z,7.31
2018-03-14T01:07:17.934Z,7.31
2018-03-14T01:08:17.937Z,7.32
2018-03-14T01:09:18.382Z,7.31
2018-03-14T01:10:18.327Z,7.36
2018-03-14T01:11:17.888Z,7.32
2018-03-14T01:12:17.870Z,7.31
2018-03-14T01:13:17.338Z,7.32
2018-03-14T01:14:17.868Z,7.38
2018-03-14T01:15:18.087Z,7.33
2018-03-14T01:16:17.588Z,7.43
2018-03-14T01:17:18.797Z,7.43
2018-03-14T01:18:17.564Z,7.48
2018-03-14T01:19:17.298Z,7.43
2018-03-14T01:20:19.032Z,7.45
2018-03-14T01:21:17.874Z,7.5
2018-03-14T01:22:17.566Z,7.48
2018-03-14T01:23:17.553Z,7.43
2018-03-14T01:24:17.827Z,7.53
2018-03-14T01:25:19.300Z,7.53
2018-03-14T01:26:17.856Z,7.45
2018-03-14T01:27:17.877Z,7.54
2018-03-14T01:28:17.783Z,7.5
2018-03-14T01:29:17.785Z,7.5
2018-03-14T01:30:18.466Z,7.45
2018-03-14T01:31:17.768Z,7.57
2018-03-14T01:32:17.509Z,7.54
2018-03-14T01:33:18.289Z,7.43
2018-03-14T01:34:17.790Z,7.47
2018-03-14T01:35:17.897Z,7.43
2018-03-14T01:36:17.476Z,7.4
2018-03-14T01:37:17.466Z,7.38
2018-03-14T01:38:17.473Z,7.42
2018-03-14T01:39:17.761Z,7.36
2018-03-14T01:40:17.927Z,7.32
2018-03-14T01:41:18.631Z,7.39
2018-03-14T01:42:17.463Z,7.38
2018-03-14T01:43:17.447Z,7.29
2018-03-14T01:44:17.427Z,7.39
2018-03-14T01:45:18.113Z,7.38
2018-03-14T01:46:17.676Z,7.39
2018-03-14T01:47:17.695Z,7.38
2018-03-14T01:48:17.833Z,7.4
2018-03-14T01:49:18.508Z,7.39
2018-03-14T01:50:18.093Z,7.32
2018-03-14T01:51:17.680Z,7.38
2018-03-14T01:52:17.703Z,7.33
2018-03-14T01:53:17.624Z,7.38
2018-03-14T01:54:17.644Z,7.33
2018-03-14T01:55:18.552Z,7.33
2018-03-14T01:56:19.328Z,7.33
2018-03-14T01:57:17.354Z,7.31
2018-03-14T01:58:17.332Z,7.36
2018-03-14T01:59:17.380Z,7.36
2018-03-14T02:00:18.793Z,7.33
2018-03-14T02:01:17.342Z,7.28
2018-03-14T02:02:17.588Z,7.24
2018-03-14T02:03:17.598Z,7.21
2018-03-14T02:04:18.551Z,7.21
2018-03-14T02:05:17.983Z,7.17
2018-03-14T02:06:17.576Z,7.13
2018-03-14T02:07:18.353Z,7.15
2018-03-14T02:08:17.546Z,7.14
2018-03-14T02:09:17.533Z,7.1
2018-03-14T02:10:18.392Z,7.06
2018-03-14T02:11:17.303Z,7.2
2018-03-14T02:12:17.240Z,7.14
2018-03-14T02:13:17.257Z,7.17
2018-03-14T02:14:17.515Z,7.14
2018-03-14T02:15:17.958Z,7.17
2018-03-14T02:16:17.226Z,7.17
2018-03-14T02:17:17.505Z,7.23
2018-03-14T02:18:16.940Z,7.24
2018-03-14T02:19:17.875Z,7.29
2018-03-14T02:20:18.596Z,7.25
2018-03-14T02:21:17.472Z,7.35
2018-03-14T02:22:17.511Z,7.28
2018-03-14T02:23:17.450Z,7.25
2018-03-14T02:24:17.449Z,7.24
2018-03-14T02:25:17.693Z,7.23
2018-03-14T02:26:17.440Z,7.29
2018-03-14T02:27:17.827Z,7.18
2018-03-14T02:28:17.422Z,7.15
2018-03-14T02:29:17.422Z,7.07
2018-03-14T02:30:18.383Z,7.02
2018-03-14T02:31:17.472Z,7.05
2018-03-14T02:32:17.392Z,7.11
2018-03-14T02:33:17.406Z,7.02
2018-03-14T02:34:17.104Z,7.1
2018-03-14T02:35:17.841Z,7.11
2018-03-14T02:36:17.360Z,7.02
2018-03-14T02:37:17.364Z,7.13
2018-03-14T02:38:17.355Z,7.13
2018-03-14T02:39:17.353Z,7.13
2018-03-14T02:40:18.549Z,7.1
2018-03-14T02:41:17.326Z,7.03
2018-03-14T02:42:18.267Z,7.15
2018-03-14T02:43:17.321Z,7.06
2018-03-14T02:44:17.361Z,7.1
2018-03-14T02:45:18.482Z,7.07
2018-03-14T02:46:17.280Z,7.06
2018-03-14T02:47:17.009Z,7.11
2018-03-14T02:48:17.267Z,7.18
2018-03-14T02:49:16.998Z,7.17
2018-03-14T02:50:18.213Z,7.14
2018-03-14T02:51:17.239Z,7.14
2018-03-14T02:52:17.231Z,7.18
2018-03-14T02:53:17.229Z,7.15
2018-03-14T02:54:16.973Z,7.2
2018-03-14T02:55:17.877Z,7.17
2018-03-14T02:56:17.211Z,7.07
2018-03-14T02:57:17.207Z,7.13
2018-03-14T02:58:17.199Z,7.15
2018-03-14T02:59:17.185Z,7.15
2018-03-14T03:00:18.246Z,7.17
2018-03-14T03:01:16.929Z,7.2
2018-03-14T03:02:16.916Z,7.18
2018-03-14T03:03:17.172Z,7.06
2018-03-14T03:04:17.159Z,7.06
2018-03-14T03:05:17.803Z,7.15
2018-03-14T03:06:16.888Z,7.11
2018-03-14T03:07:17.134Z,7.13
2018-03-14T03:08:17.133Z,7.15
2018-03-14T03:09:17.124Z,7.15
2018-03-14T03:10:18.050Z,7.06
2018-03-14T03:11:16.853Z,7.13
2018-03-14T03:12:17.108Z,7.15
2018-03-14T03:13:17.099Z,7.17
2018-03-14T03:14:17.089Z,7.15
2018-03-14T03:15:17.785Z,7.11
2018-03-14T03:16:16.825Z,7.17
2018-03-14T03:17:16.815Z,7.1
2018-03-14T03:18:17.072Z,7.07
2018-03-14T03:19:17.070Z,7.06
2018-03-14T03:20:17.600Z,7.13
2018-03-14T03:21:17.053Z,7.07
2018-03-14T03:22:17.035Z,7.11
2018-03-14T03:23:17.082Z,7.07
2018-03-14T03:24:17.027Z,7.11
2018-03-14T03:25:17.978Z,6.99
2018-03-14T03:26:16.509Z,6.99
2018-03-14T03:27:17.017Z,7.03
2018-03-14T03:28:17.008Z,7.07
2018-03-14T03:29:16.994Z,7.06
2018-03-14T03:30:18.055Z,7.11
2018-03-14T03:31:16.986Z,7.05
2018-03-14T03:32:16.975Z,7.03
2018-03-14T03:33:16.722Z,7.03
2018-03-14T03:34:16.967Z,7.03
2018-03-14T03:35:18.213Z,7.13
2018-03-14T03:36:16.693Z,7.03
2018-03-14T03:37:16.939Z,7.06
2018-03-14T03:38:16.938Z,7.07
2018-03-14T03:39:16.921Z,7.06
2018-03-14T03:40:17.690Z,7.05
2018-03-14T03:41:16.908Z,7.07
2018-03-14T03:42:16.901Z,7.07
2018-03-14T03:43:16.901Z,7.05
2018-03-14T03:44:16.901Z,7.07
2018-03-14T03:45:17.239Z,7.05
2018-03-14T03:46:16.626Z,7.07
2018-03-14T03:47:16.871Z,7.05
2018-03-14T03:48:16.944Z,7.11
2018-03-14T03:49:16.861Z,7.07
2018-03-14T03:50:17.620Z,7.11
2018-03-14T03:51:16.600Z,7.11
2018-03-14T03:52:16.847Z,7.05
2018-03-14T03:53:16.845Z,7.13
2018-03-14T03:54:16.840Z,7.07
2018-03-14T03:55:18.303Z,7.06
2018-03-14T03:56:16.820Z,7.1
2018-03-14T03:57:16.822Z,7.07
2018-03-14T03:58:16.809Z,7.07
2018-03-14T03:59:16.810Z,7.11
2018-03-14T04:00:18.051Z,7.13
2018-03-14T04:01:16.786Z,7.13
2018-03-14T04:02:16.527Z,7.06
2018-03-14T04:03:16.772Z,7.03
2018-03-14T04:04:16.530Z,7
2018-03-14T04:05:17.276Z,7.02
2018-03-14T04:06:16.762Z,6.95
2018-03-14T04:07:16.501Z,6.96
2018-03-14T04:08:17.328Z,7
2018-03-14T04:09:16.732Z,6.88
2018-03-14T04:10:17.878Z,6.93
2018-03-14T04:11:16.471Z,6.87
2018-03-14T04:12:16.710Z,6.88
2018-03-14T04:13:16.708Z,6.85
2018-03-14T04:14:16.444Z,6.88
2018-03-14T04:15:17.081Z,6.87
2018-03-14T04:16:16.681Z,6.81
2018-03-14T04:17:16.686Z,6.78
2018-03-14T04:18:16.669Z,6.87
2018-03-14T04:19:16.408Z,6.78
2018-03-14T04:20:17.835Z,6.87
2018-03-14T04:21:16.142Z,6.87
2018-03-14T04:22:16.389Z,6.95
2018-03-14T04:23:16.689Z,6.92
2018-03-14T04:24:16.626Z,6.92
2018-03-14T04:25:17.985Z,6.93
2018-03-14T04:26:16.616Z,6.92
2018-03-14T04:27:16.366Z,6.79
2018-03-14T04:28:16.615Z,6.84
2018-03-14T04:29:16.605Z,6.84
2018-03-14T04:30:17.537Z,6.82
2018-03-14T04:31:16.077Z,6.74
2018-03-14T04:32:16.072Z,6.79
2018-03-14T04:33:16.570Z,6.87
2018-03-14T04:34:16.568Z,6.88
2018-03-14T04:35:17.856Z,6.79
2018-03-14T04:36:16.565Z,6.81
2018-03-14T04:37:16.293Z,6.81
2018-03-14T04:38:17.898Z,6.81
2018-03-14T04:39:16.025Z,6.81
2018-03-14T04:40:17.807Z,6.82
2018-03-14T04:41:16.517Z,6.85
2018-03-14T04:42:16.504Z,6.87
2018-03-14T04:43:16.501Z,6.74
2018-03-14T04:44:16.240Z,6.78
2018-03-14T04:45:18.323Z,6.85
2018-03-14T04:46:16.228Z,6.82
2018-03-14T04:47:16.482Z,6.84
2018-03-14T04:48:16.473Z,6.88
2018-03-14T04:49:16.220Z,6.87
2018-03-14T04:50:17.561Z,6.72
2018-03-14T04:51:16.448Z,6.81
2018-03-14T04:52:16.556Z,6.77
2018-03-14T04:53:16.492Z,6.78
2018-03-14T04:54:16.438Z,6.7
2018-03-14T04:55:17.606Z,6.78
2018-03-14T04:56:16.423Z,6.75
2018-03-14T04:57:16.154Z,6.77
2018-03-14T04:58:16.399Z,6.69
2018-03-14T04:59:16.398Z,6.74
2018-03-14T05:00:17.850Z,6.67
2018-03-14T05:01:16.379Z,6.74
2018-03-14T05:02:16.436Z,6.74
2018-03-14T05:03:15.859Z,6.74
2018-03-14T05:04:16.368Z,6.78
2018-03-14T05:05:17.767Z,6.82
2018-03-14T05:06:16.358Z,6.72
2018-03-14T05:07:16.092Z,6.84
2018-03-14T05:08:16.334Z,6.87
2018-03-14T05:09:16.346Z,6.84
2018-03-14T05:10:17.176Z,6.85
2018-03-14T05:11:16.068Z,6.89
2018-03-14T05:12:16.330Z,6.92
2018-03-14T05:13:16.315Z,6.81
2018-03-14T05:14:16.448Z,6.84
2018-03-14T05:15:17.981Z,6.82
2018-03-14T05:16:16.375Z,6.78
2018-03-14T05:17:16.300Z,6.77
2018-03-14T05:18:16.365Z,6.79
2018-03-14T05:19:16.319Z,6.77
2018-03-14T05:20:17.342Z,6.75
2018-03-14T05:21:16.312Z,6.78
2018-03-14T05:22:16.245Z,6.77
2018-03-14T05:23:15.988Z,6.75
2018-03-14T05:24:16.279Z,6.78
2018-03-14T05:25:17.301Z,6.78
2018-03-14T05:26:16.329Z,6.74
2018-03-14T05:27:16.208Z,6.79
2018-03-14T05:28:16.255Z,6.78
2018-03-14T05:29:16.327Z,6.7
2018-03-14T05:30:17.412Z,6.72
2018-03-14T05:31:16.186Z,6.84
2018-03-14T05:32:16.187Z,6.82
2018-03-14T05:33:16.172Z,6.75
2018-03-14T05:34:16.171Z,6.7
2018-03-14T05:35:16.365Z,6.78
2018-03-14T05:36:16.161Z,6.82
2018-03-14T05:37:15.883Z,6.7
2018-03-14T05:38:16.340Z,6.74
2018-03-14T05:39:16.127Z,6.79
2018-03-14T05:40:17.731Z,6.7
2018-03-14T05:41:16.117Z,6.78
2018-03-14T05:42:15.853Z,6.77
2018-03-14T05:43:16.109Z,6.74
2018-03-14T05:44:16.092Z,6.66
2018-03-14T05:45:17.060Z,6.66
2018-03-14T05:46:16.083Z,6.69
2018-03-14T05:47:16.074Z,6.78
2018-03-14T05:48:16.070Z,6.64
2018-03-14T05:49:16.065Z,6.64
2018-03-14T05:50:17.513Z,6.66
2018-03-14T05:51:16.058Z,6.66
2018-03-14T05:52:15.787Z,6.67
2018-03-14T05:53:16.085Z,6.67
2018-03-14T05:54:16.031Z,6.75
2018-03-14T05:55:17.121Z,6.67
2018-03-14T05:56:16.022Z,6.75
2018-03-14T05:57:15.758Z,6.69
2018-03-14T05:58:15.750Z,6.77
2018-03-14T05:59:15.735Z,6.74
2018-03-14T06:00:17.399Z,6.69
2018-03-14T06:01:15.981Z,6.87
2018-03-14T06:02:15.972Z,6.78
2018-03-14T06:03:15.712Z,6.74
2018-03-14T06:04:15.961Z,6.88
2018-03-14T06:05:16.538Z,6.78
2018-03-14T06:06:15.949Z,6.87
2018-03-14T06:07:15.959Z,6.87
2018-03-14T06:08:16.248Z,6.92
2018-03-14T06:09:15.668Z,6.92
2018-03-14T06:10:17.225Z,6.92
2018-03-14T06:11:15.661Z,6.85
2018-03-14T06:12:15.912Z,6.96
2018-03-14T06:13:15.663Z,6.85
2018-03-14T06:14:15.645Z,6.85
2018-03-14T06:15:16.724Z,6.88
2018-03-14T06:16:15.894Z,6.88
2018-03-14T06:17:15.894Z,6.87
2018-03-14T06:18:15.864Z,6.89
2018-03-14T06:19:15.866Z,6.89
2018-03-14T06:20:16.836Z,6.87
2018-03-14T06:21:15.606Z,6.93
2018-03-14T06:22:15.585Z,6.89
2018-03-14T06:23:19.131Z,6.87
2018-03-14T06:24:15.574Z,6.87
2018-03-14T06:25:16.832Z,6.92
2018-03-14T06:26:15.828Z,6.87
2018-03-14T06:27:15.816Z,6.93
2018-03-14T06:28:15.812Z,6.97
2018-03-14T06:29:15.548Z,6.93
2018-03-14T06:30:16.956Z,6.93
2018-03-14T06:31:15.793Z,6.92
2018-03-14T06:32:15.792Z,6.99
2018-03-14T06:33:15.533Z,7.13
2018-03-14T06:34:15.261Z,7.07
2018-03-14T06:35:17.420Z,7.17
2018-03-14T06:36:15.506Z,7.14
2018-03-14T06:37:15.563Z,7.28
2018-03-14T06:38:15.251Z,7.24
2018-03-14T06:39:15.744Z,7.31
2018-03-14T06:40:16.319Z,7.33
2018-03-14T06:41:15.486Z,7.39
2018-03-14T06:42:15.470Z,7.4
2018-03-14T06:43:15.714Z,7.48
2018-03-14T06:44:15.458Z,7.48
2018-03-14T06:45:16.994Z,7.5
2018-03-14T06:46:15.442Z,7.6
2018-03-14T06:47:15.436Z,7.58
2018-03-14T06:48:15.692Z,7.56
2018-03-14T06:49:15.422Z,7.57
2018-03-14T06:50:16.881Z,7.57
2018-03-14T06:51:15.661Z,7.75
2018-03-14T06:52:15.659Z,7.79
2018-03-14T06:53:15.651Z,7.77
2018-03-14T06:54:15.645Z,7.82
2018-03-14T06:55:17.308Z,7.75
2018-03-14T06:56:15.131Z,7.8
2018-03-14T06:57:15.385Z,7.8
2018-03-14T06:58:15.129Z,7.88
2018-03-14T06:59:15.624Z,7.94
2018-03-14T07:00:16.721Z,7.88
2018-03-14T07:01:15.617Z,7.94
2018-03-14T07:02:15.602Z,7.85
2018-03-14T07:03:15.595Z,7.95
2018-03-14T07:04:15.599Z,7.97
2018-03-14T07:05:16.699Z,8.06
2018-03-14T07:06:15.360Z,8
2018-03-14T07:07:15.069Z,8.08
2018-03-14T07:08:15.582Z,8.19
2018-03-14T07:09:15.728Z,8.23
2018-03-14T07:10:16.180Z,8.16
2018-03-14T07:11:15.560Z,8.19
2018-03-14T07:12:15.552Z,8.28
2018-03-14T07:13:15.291Z,8.31
2018-03-14T07:14:15.296Z,8.26
2018-03-14T07:15:16.553Z,8.41
2018-03-14T07:16:15.537Z,8.27
2018-03-14T07:17:15.528Z,8.3
2018-03-14T07:18:15.261Z,8.38
2018-03-14T07:19:15.526Z,8.38
2018-03-14T07:20:16.589Z,8.42
2018-03-14T07:21:15.247Z,8.44
2018-03-14T07:22:15.505Z,8.44
2018-03-14T07:23:15.505Z,8.42
2018-03-14T07:24:16.425Z,8.38
2018-03-14T07:25:17.164Z,8.44
2018-03-14T07:26:15.484Z,8.53
2018-03-14T07:27:15.232Z,8.58
2018-03-14T07:28:15.216Z,8.58
2018-03-14T07:29:15.466Z,8.67
2018-03-14T07:30:16.579Z,8.7
2018-03-14T07:31:15.452Z,8.7
2018-03-14T07:32:15.458Z,8.74
2018-03-14T07:33:15.208Z,8.71
2018-03-14T07:34:15.458Z,8.58
2018-03-14T07:35:15.944Z,8.52
2018-03-14T07:36:15.179Z,8.63
2018-03-14T07:37:15.179Z,8.63
2018-03-14T07:38:15.421Z,8.66
2018-03-14T07:39:17.327Z,8.69
2018-03-14T07:40:16.894Z,8.71
2018-03-14T07:41:15.408Z,8.87
2018-03-14T07:42:15.150Z,8.85
2018-03-14T07:43:15.407Z,8.99
2018-03-14T07:44:15.395Z,9.08
2018-03-14T07:45:16.625Z,9.08
2018-03-14T07:46:15.388Z,9.18
2018-03-14T07:47:15.385Z,9.13
2018-03-14T07:48:15.124Z,9.08
2018-03-14T07:49:15.381Z,9.11
2018-03-14T07:50:16.402Z,9.13
2018-03-14T07:51:15.378Z,9.13
2018-03-14T07:52:14.854Z,9.14
2018-03-14T07:53:15.102Z,9.19
2018-03-14T07:54:15.148Z,9.25
2018-03-14T07:55:16.684Z,9.26
2018-03-14T07:56:15.347Z,9.34
2018-03-14T07:57:15.342Z,9.32
2018-03-14T07:58:15.087Z,9.26
2018-03-14T07:59:14.835Z,9.4
2018-03-14T08:00:16.782Z,9.34
2018-03-14T08:01:15.205Z,9.32
2018-03-14T08:02:15.319Z,9.18
2018-03-14T08:03:15.319Z,9.19
2018-03-14T08:04:15.065Z,9.16
2018-03-14T08:05:15.786Z,9.36
2018-03-14T08:06:15.047Z,9.34
2018-03-14T08:07:15.046Z,9.37
2018-03-14T08:08:15.308Z,9.36
2018-03-14T08:09:15.597Z,9.4
2018-03-14T08:10:16.631Z,9.43
2018-03-14T08:11:15.037Z,9.56
2018-03-14T08:12:15.316Z,9.43
2018-03-14T08:13:15.283Z,9.54
2018-03-14T08:14:15.288Z,9.55
2018-03-14T08:15:16.081Z,9.66
2018-03-14T08:16:15.013Z,9.74
2018-03-14T08:17:15.266Z,9.87
2018-03-14T08:18:15.012Z,9.99
2018-03-14T08:19:15.022Z,9.87
2018-03-14T08:20:15.981Z,9.86
2018-03-14T08:21:15.249Z,9.86
2018-03-14T08:22:15.241Z,9.86
2018-03-14T08:23:14.981Z,9.89
2018-03-14T08:24:15.288Z,10.02
2018-03-14T08:25:16.390Z,10.19
2018-03-14T08:26:14.983Z,10.17
2018-03-14T08:27:15.227Z,10.2
2018-03-14T08:28:15.225Z,10.05
2018-03-14T08:29:15.225Z,10.05
2018-03-14T08:30:16.255Z,10.04
2018-03-14T08:31:15.223Z,10.04
2018-03-14T08:32:14.700Z,9.99
2018-03-14T08:33:15.211Z,10.01
2018-03-14T08:34:15.206Z,10.02
2018-03-14T08:35:15.754Z,10.04
2018-03-14T08:36:14.957Z,10.07
2018-03-14T08:37:15.302Z,10.09
2018-03-14T08:38:15.190Z,10.07
2018-03-14T08:39:17.235Z,10.13
2018-03-14T08:40:15.951Z,10.13
2018-03-14T08:41:15.180Z,10.09
2018-03-14T08:43:14.931Z,10.19
2018-03-14T08:44:14.932Z,10.23
2018-03-14T08:45:16.233Z,10.48
2018-03-14T08:46:14.921Z,10.44
2018-03-14T08:47:15.161Z,10.53
2018-03-14T08:48:14.906Z,10.68
2018-03-14T08:49:14.654Z,10.68
2018-03-14T08:50:16.607Z,10.69
2018-03-14T08:51:15.151Z,10.67
2018-03-14T08:52:15.150Z,10.67
2018-03-14T08:53:14.889Z,10.63
2018-03-14T08:54:15.144Z,10.53
2018-03-14T08:55:16.640Z,10.59
2018-03-14T08:56:15.137Z,10.63
2018-03-14T08:57:14.901Z,10.72
2018-03-14T08:58:15.131Z,10.61
2018-03-14T08:59:14.890Z,10.72
2018-03-14T09:00:16.520Z,10.72
2018-03-14T09:01:15.124Z,10.64
2018-03-14T09:02:15.124Z,10.71
2018-03-14T09:03:14.867Z,10.75
2018-03-14T09:04:15.126Z,11
2018-03-14T09:05:16.222Z,11.05
2018-03-14T09:06:15.116Z,11.22
2018-03-14T09:07:15.108Z,11.29
2018-03-14T09:08:15.107Z,11.41
2018-03-14T09:09:15.104Z,11.37
2018-03-14T09:10:15.802Z,11.52
2018-03-14T09:11:14.922Z,11.59
2018-03-14T09:12:14.850Z,11.6
2018-03-14T09:13:14.853Z,11.57
2018-03-14T09:14:14.847Z,11.72
2018-03-14T09:15:16.027Z,11.57
2018-03-14T09:16:15.147Z,11.55
2018-03-14T09:17:15.095Z,11.52
2018-03-14T09:18:15.089Z,11.33
2018-03-14T09:19:15.087Z,11.25
2018-03-14T09:20:15.897Z,11.12
2018-03-14T09:21:14.854Z,11.04
2018-03-14T09:22:14.840Z,10.97
2018-03-14T09:23:14.856Z,10.81
2018-03-14T09:24:15.076Z,10.75
2018-03-14T09:25:15.962Z,10.75
2018-03-14T09:26:15.072Z,10.72
2018-03-14T09:27:15.078Z,10.61
2018-03-14T09:28:15.071Z,10.56
2018-03-14T09:29:14.805Z,10.54
2018-03-14T09:30:16.235Z,10.37
2018-03-14T09:31:15.065Z,10.38
2018-03-14T09:32:14.804Z,10.4
2018-03-14T09:33:15.111Z,10.38
2018-03-14T09:34:14.799Z,10.33
2018-03-14T09:35:16.857Z,10.41
2018-03-14T09:36:15.044Z,10.41
2018-03-14T09:37:15.040Z,10.38
2018-03-14T09:38:14.784Z,10.38
2018-03-14T09:39:15.042Z,10.38
2018-03-14T09:40:18.673Z,10.4
2018-03-14T09:41:14.787Z,10.48
2018-03-14T09:42:15.033Z,10.6
2018-03-14T09:43:14.792Z,10.59
2018-03-14T09:44:15.030Z,10.59
2018-03-14T09:45:16.782Z,10.75
2018-03-14T09:46:15.092Z,10.74
2018-03-14T09:47:15.016Z,10.74
2018-03-14T09:48:15.010Z,10.68
2018-03-14T09:49:15.024Z,10.67
2018-03-14T09:50:16.167Z,10.6
2018-03-14T09:51:14.753Z,10.57
2018-03-14T09:52:15.006Z,10.59
2018-03-14T09:53:15.009Z,10.4
2018-03-14T09:54:15.157Z,10.48
2018-03-14T09:55:15.907Z,10.56
2018-03-14T09:56:14.732Z,10.69
2018-03-14T09:57:15.075Z,10.72
2018-03-14T09:58:14.735Z,10.49
2018-03-14T09:59:14.982Z,10.38
2018-03-14T10:00:18.158Z,10.31
2018-03-14T10:01:14.727Z,10.3
2018-03-14T10:02:14.987Z,10.31
2018-03-14T10:03:14.976Z,10.35
2018-03-14T10:04:14.963Z,10.53
2018-03-14T10:05:15.497Z,10.72
2018-03-14T10:06:14.706Z,10.9
2018-03-14T10:07:14.963Z,10.96
2018-03-14T10:08:14.951Z,10.94
2018-03-14T10:09:14.961Z,11.08
2018-03-14T10:10:15.375Z,11.11
2018-03-14T10:11:14.687Z,11.17
2018-03-14T10:12:14.691Z,11.27
2018-03-14T10:13:14.936Z,11.27
2018-03-14T10:14:14.941Z,11.18
2018-03-14T10:15:16.465Z,11.25
2018-03-14T10:16:14.683Z,11.22
2018-03-14T10:17:14.952Z,11.15
2018-03-14T10:18:15.066Z,11.07
2018-03-14T10:19:15.054Z,11.02
2018-03-14T10:20:16.505Z,10.96
2018-03-14T10:21:14.689Z,10.81
2018-03-14T10:22:14.967Z,10.74
2018-03-14T10:23:14.656Z,10.76
2018-03-14T10:24:14.907Z,10.92
2018-03-14T10:25:16.222Z,11.07
2018-03-14T10:26:14.905Z,11.19
2018-03-14T10:27:14.915Z,11.41
2018-03-14T10:28:14.910Z,11.52
2018-03-14T10:58:59.684Z,12.32
2018-03-14T10:59:59.884Z,12.21
2018-03-14T11:00:59.695Z,12.09
2018-03-14T11:01:59.612Z,11.87
2018-03-14T11:02:59.857Z,11.73
2018-03-14T11:03:59.349Z,11.63
2018-03-14T11:04:59.609Z,11.5
2018-03-14T11:05:59.352Z,11.4
2018-03-14T11:06:59.596Z,11.41
2018-03-14T11:07:59.854Z,11.37
2018-03-14T11:08:59.600Z,11.33
2018-03-14T11:09:59.574Z,11.37
2018-03-14T11:10:59.620Z,11.22
2018-03-14T11:11:59.821Z,11.07
2018-03-14T11:12:59.816Z,10.94
2018-03-14T11:13:59.827Z,10.82
2018-03-14T11:14:59.804Z,10.82
2018-03-14T11:15:59.882Z,10.87
2018-03-14T11:16:59.573Z,10.82
2018-03-14T11:17:59.810Z,10.84
2018-03-14T11:18:59.804Z,10.79
2018-03-14T11:19:59.539Z,10.79
2018-03-14T11:20:59.587Z,10.84
2018-03-14T11:21:59.548Z,10.72
2018-03-14T11:22:59.554Z,10.72
2018-03-14T11:23:59.519Z,10.61
2018-03-14T11:24:59.770Z,10.63
2018-03-14T11:25:59.518Z,10.63
2018-03-14T11:26:59.772Z,10.63
2018-03-14T11:27:59.776Z,10.59
2018-03-14T11:28:59.800Z,10.74
2018-03-14T11:29:59.764Z,10.79
2018-03-14T11:30:59.529Z,10.94
2018-03-14T11:31:59.499Z,11.19
2018-03-14T11:32:59.501Z,11.27
2018-03-14T11:33:59.492Z,11.36
2018-03-14T11:34:59.743Z,11.37
2018-03-14T11:35:59.737Z,11.32
2018-03-14T11:36:59.499Z,11.32
2018-03-14T11:37:59.730Z,11.45
2018-03-14T11:38:59.731Z,11.44
2018-03-14T11:39:59.733Z,11.4
2018-03-14T11:40:59.747Z,11.41
2018-03-14T11:41:59.725Z,11.27
2018-03-14T11:42:59.208Z,11.26
2018-03-14T11:43:59.507Z,11.11
2018-03-14T11:44:59.529Z,11.19
2018-03-14T11:45:59.794Z,11.12
2018-03-14T11:46:59.703Z,11.12
2018-03-14T11:47:59.701Z,11.12
2018-03-14T11:48:59.701Z,11.17
2018-03-14T11:49:59.713Z,11.15
2018-03-14T11:50:59.526Z,11.08
2018-03-14T11:51:59.188Z,11.17
2018-03-14T11:52:59.449Z,11.19
2018-03-14T11:53:59.691Z,11.18
2018-03-14T11:54:59.685Z,11.26
2018-03-14T11:55:59.493Z,11.26
2018-03-14T11:56:59.426Z,11.22
2018-03-14T11:57:59.424Z,11.23
2018-03-14T11:58:59.681Z,11.19
2018-03-14T11:59:59.415Z,11.23
2018-03-14T12:00:59.459Z,11.18
2018-03-14T12:01:59.674Z,11.17
2018-03-14T12:02:59.424Z,11.26
2018-03-14T12:03:59.673Z,11.33
2018-03-14T12:04:59.402Z,11.23
2018-03-14T12:05:59.440Z,11.14
2018-03-14T12:06:59.655Z,11.12
2018-03-14T12:07:59.391Z,11.1
2018-03-14T12:08:59.653Z,11.1
2018-03-14T12:09:59.649Z,11.11
2018-03-14T12:10:59.654Z,11.22
2018-03-14T12:11:59.641Z,11.27
2018-03-14T12:12:59.634Z,11.23
2018-03-14T12:13:59.385Z,11.43
2018-03-14T12:14:59.642Z,11.52
2018-03-14T12:15:59.414Z,11.68
2018-03-14T12:16:59.379Z,11.84
2018-03-14T12:17:59.632Z,12.06
2018-03-14T12:18:59.685Z,12.12
2018-03-14T12:19:59.693Z,12.31
2018-03-14T12:20:59.477Z,12.35
2018-03-14T12:21:59.613Z,12.46
2018-03-14T12:22:59.619Z,12.55
2018-03-14T12:23:59.634Z,12.62
2018-03-14T12:24:59.627Z,12.72
2018-03-14T12:25:59.394Z,12.73
2018-03-14T12:26:59.605Z,12.64
2018-03-14T12:27:59.610Z,12.65
2018-03-14T12:28:59.648Z,12.47
2018-03-14T12:29:59.664Z,12.25
2018-03-14T12:30:59.606Z,12.31
2018-03-14T12:31:59.604Z,12.29
2018-03-14T12:32:59.335Z,12.21
2018-03-14T12:33:59.328Z,12.09
2018-03-14T12:34:59.589Z,12.07
2018-03-14T12:35:59.621Z,11.94
2018-03-14T12:36:59.674Z,11.94
2018-03-14T12:37:59.584Z,11.78
2018-03-14T12:38:59.587Z,11.75
2018-03-14T12:39:59.585Z,11.72
2018-03-14T12:40:59.637Z,11.75
2018-03-14T12:41:59.579Z,11.73
2018-03-14T12:42:59.589Z,11.73
2018-03-14T12:43:59.615Z,11.63
2018-03-14T12:44:59.581Z,11.6
2018-03-14T12:45:59.642Z,11.62
2018-03-14T12:46:59.373Z,11.59
2018-03-14T12:47:59.585Z,11.73
2018-03-14T12:48:59.295Z,11.81
2018-03-14T12:49:59.577Z,11.88
2018-03-14T12:50:59.664Z,11.88
2018-03-14T12:51:59.545Z,11.81
2018-03-14T12:52:59.556Z,11.73
2018-03-14T12:53:59.031Z,11.8
2018-03-14T12:54:59.535Z,11.88
2018-03-14T12:55:59.537Z,11.94
2018-03-14T12:56:59.559Z,11.95
2018-03-14T12:57:59.534Z,12.09
2018-03-14T12:59:00.190Z,12.2
2018-03-14T12:59:59.288Z,12.18
2018-03-14T13:00:59.524Z,12.22
2018-03-14T13:01:59.273Z,12.35
2018-03-14T13:02:59.526Z,12.36
2018-03-14T13:03:59.542Z,12.5
2018-03-14T13:04:59.548Z,12.7
2018-03-14T13:05:59.555Z,12.6
2018-03-14T13:06:59.274Z,12.55
2018-03-14T13:07:59.256Z,12.61
2018-03-14T13:08:59.272Z,12.5
2018-03-14T13:09:59.253Z,12.37
2018-03-14T13:10:59.537Z,12.37
2018-03-14T13:11:59.245Z,12.18
2018-03-14T13:12:59.498Z,12.1
2018-03-14T13:13:59.507Z,11.83
2018-03-14T13:14:59.496Z,11.83
2018-03-14T13:15:59.491Z,11.75
2018-03-14T13:16:59.613Z,11.77
2018-03-14T13:17:59.495Z,11.69
2018-03-14T13:18:59.488Z,11.7
2018-03-14T13:19:59.503Z,11.69
2018-03-14T13:20:59.299Z,11.8
2018-03-14T13:21:59.493Z,11.91
2018-03-14T13:22:59.496Z,12.02
2018-03-14T13:23:59.478Z,12.17
2018-03-14T13:24:59.476Z,12.28
2018-03-14T13:25:59.527Z,12.37
2018-03-14T13:26:59.216Z,12.4
2018-03-14T13:27:59.216Z,12.22
2018-03-14T13:28:59.218Z,12.37
2018-03-14T13:29:59.465Z,12.36
2018-03-14T13:30:59.559Z,12.31
2018-03-14T13:31:59.207Z,12.29
2018-03-14T13:32:59.501Z,12.35
2018-03-14T13:33:59.213Z,12.35
2018-03-14T13:34:58.958Z,12.32
2018-03-14T13:35:59.197Z,12.35
2018-03-14T13:36:59.202Z,12.35
2018-03-14T13:37:59.193Z,12.39
2018-03-14T13:38:59.442Z,12.36
2018-03-14T13:39:59.464Z,12.36
2018-03-14T13:40:59.240Z,12.32
2018-03-14T13:41:59.195Z,12.22